Terminal Aerodrome Forecast
Issued by NWS

Home | Current Version | Previous Version | Text Only | Print | Product List | Glossary On
Versions: 1 2 3 4 5 6 7 8 9 10 11 12 13 14 15 16 17 18 19 20 21 22 23 24 25 26 27 28 29 30 31 32 33 34 35 36 37 38 39 40 41 42 43 44 45 46 47 48 49 50
000
FTUS46 KOTX 290556 CCA
TAFPUW
TAF COR
KPUW 290556Z 2906/3006 09011KT P6SM BKN100 OVC120
      TEMPO 2906/2909 5SM FU HZ
     FM290900 09006KT 4SM FU HZ BKN100 OVC120 WS020/19035KT
     FM291600 20016G25KT 6SM FU HZ SCT120 OVC200
     FM291800 23021G29KT 4SM BLDU BKN100 BKN150
     FM292100 26018G24KT P6SM VCSH SCT040 BKN090 BKN150
     FM300200 24010G15KT P6SM SCT080 BKN100 BKN200=

USA.gov is the U.S. government's official web portal to all federal, state and local government web resources and services.